createdAt,value
2018-08-20T00:00:38.353Z,11.40
2018-08-20T00:03:05.937Z,11.10
2018-08-20T00:05:33.459Z,11.73
2018-08-20T00:08:01.201Z,11.03
2018-08-20T00:10:28.760Z,11.13
2018-08-20T00:12:56.297Z,10.90
2018-08-20T00:15:23.880Z,12.10
2018-08-20T00:17:51.525Z,10.63
2018-08-20T00:20:19.168Z,10.90
2018-08-20T00:22:47.060Z,11.53
2018-08-20T00:25:14.634Z,11.63
2018-08-20T00:27:42.301Z,11.70
2018-08-20T00:30:09.863Z,11.37
2018-08-20T00:32:37.579Z,11.80
2018-08-20T00:35:05.131Z,10.60
2018-08-20T00:37:32.676Z,11.63
2018-08-20T00:40:00.253Z,11.13
2018-08-20T00:42:27.806Z,11.47
2018-08-20T00:44:55.495Z,12.27
2018-08-20T00:47:23.057Z,12.20
2018-08-20T00:49:50.625Z,13.07
2018-08-20T00:52:18.175Z,11.50
2018-08-20T00:54:45.921Z,12.20
2018-08-20T00:57:13.659Z,13.07
2018-08-20T00:59:41.200Z,11.90
2018-08-20T01:02:08.948Z,12.87
2018-08-20T01:04:36.472Z,12.70
2018-08-20T01:07:04.146Z,13.65
2018-08-20T01:09:31.658Z,13.43
2018-08-20T01:11:59.216Z,12.73
2018-08-20T01:14:26.792Z,11.43
2018-08-20T01:16:54.394Z,12.17
2018-08-20T01:19:21.986Z,13.00
2018-08-20T01:21:49.521Z,13.37
2018-08-20T01:24:17.119Z,13.32
2018-08-20T01:26:44.692Z,13.10
2018-08-20T01:29:12.344Z,12.20
2018-08-20T01:31:39.891Z,13.10
2018-08-20T01:34:07.436Z,12.63
2018-08-20T01:36:34.956Z,12.43
2018-08-20T01:39:02.549Z,11.32
2018-08-20T01:41:30.117Z,13.30
2018-08-20T01:43:57.752Z,13.43
2018-08-20T01:46:25.311Z,13.03
2018-08-20T01:48:52.886Z,11.90
2018-08-20T01:51:20.446Z,11.67
2018-08-20T01:53:48.018Z,11.27
2018-08-20T01:56:15.561Z,11.63
2018-08-20T01:58:43.207Z,11.10
2018-08-20T02:01:11.007Z,11.40
2018-08-20T02:03:38.588Z,10.53
2018-08-20T02:06:06.131Z,10.80
2018-08-20T02:08:33.712Z,10.30
2018-08-20T02:11:01.245Z,10.37
2018-08-20T02:13:28.913Z,10.07
2018-08-20T02:15:56.467Z,10.87
2018-08-20T02:18:24.135Z,11.70
2018-08-20T02:20:51.663Z,11.30
2018-08-20T02:23:19.230Z,11.57
2018-08-20T02:25:46.805Z,12.13
2018-08-20T02:28:14.572Z,11.33
2018-08-20T02:30:42.132Z,11.10
2018-08-20T02:33:09.773Z,11.73
2018-08-20T02:35:37.410Z,11.93
2018-08-20T02:38:04.945Z,12.03
2018-08-20T02:40:32.505Z,10.90
2018-08-20T02:43:00.091Z,11.47
2018-08-20T02:45:27.751Z,11.77
2018-08-20T02:47:55.307Z,11.37
2018-08-20T02:50:22.849Z,12.30
2018-08-20T02:52:50.408Z,12.87
2018-08-20T02:55:17.951Z,11.88
2018-08-20T02:57:45.526Z,12.97
2018-08-20T03:00:13.046Z,11.47
2018-08-20T03:02:40.645Z,12.43
2018-08-20T03:05:08.288Z,13.75
2018-08-20T03:07:35.807Z,12.53
2018-08-20T03:10:03.575Z,16.40
2018-08-20T03:12:31.110Z,15.67
2018-08-20T03:14:58.779Z,14.65
2018-08-20T03:17:26.415Z,17.12
2018-08-20T03:19:53.972Z,14.60
2018-08-20T03:22:21.634Z,18.03
2018-08-20T03:24:49.267Z,16.93
2018-08-20T03:27:16.836Z,15.10
2018-08-20T03:29:44.471Z,16.10
2018-08-20T03:32:12.090Z,15.93
2018-08-20T03:34:39.689Z,14.27
2018-08-20T03:37:07.366Z,15.38
2018-08-20T03:39:34.900Z,15.83
2018-08-20T03:42:02.415Z,15.90
2018-08-20T03:44:30.001Z,16.50
2018-08-20T03:46:57.544Z,14.60
2018-08-20T03:49:25.142Z,16.73
2018-08-20T03:51:52.797Z,17.60
2018-08-20T03:54:20.436Z,17.77
2018-08-20T03:56:47.988Z,15.40
2018-08-20T03:59:15.583Z,18.00
2018-08-20T04:01:43.161Z,18.90
2018-08-20T04:04:10.703Z,18.73
2018-08-20T04:06:38.278Z,16.97
2018-08-20T04:09:06.031Z,17.97
2018-08-20T04:11:33.680Z,18.90
2018-08-20T04:14:01.418Z,18.08
2018-08-20T04:16:28.987Z,18.50
2018-08-20T04:18:56.507Z,17.83
2018-08-20T04:21:24.097Z,18.07
2018-08-20T04:23:51.680Z,18.07
2018-08-20T04:26:19.322Z,17.80
2018-08-20T04:28:46.860Z,17.00
2018-08-20T04:31:14.426Z,17.57
2018-08-20T04:33:41.966Z,18.80
2018-08-20T04:36:09.549Z,17.87
2018-08-20T04:38:37.105Z,18.17
2018-08-20T04:41:04.670Z,19.23
2018-08-20T04:43:32.218Z,18.70
2018-08-20T04:45:59.863Z,18.00
2018-08-20T04:48:27.486Z,18.20
2018-08-20T04:50:55.212Z,19.17
2018-08-20T04:53:22.680Z,18.43
2018-08-20T04:55:50.283Z,17.60
2018-08-20T04:58:17.814Z,18.63
2018-08-20T05:00:45.376Z,18.23
2018-08-20T05:03:12.930Z,17.80
2018-08-20T05:05:40.450Z,17.53
2018-08-20T05:08:08.014Z,17.67
2018-08-20T05:10:35.531Z,18.43
2018-08-20T05:13:03.108Z,19.80
2018-08-20T05:15:30.726Z,18.63
2018-08-20T05:17:58.282Z,19.37
2018-08-20T05:20:26.043Z,21.17
2018-08-20T05:22:53.673Z,18.58
2018-08-20T05:25:21.254Z,18.03
2018-08-20T05:27:48.832Z,16.67
2018-08-20T05:30:16.350Z,17.83
2018-08-20T05:32:43.911Z,17.80
2018-08-20T05:35:11.523Z,18.03
2018-08-20T05:37:39.054Z,17.40
2018-08-20T05:40:06.681Z,18.27
2018-08-20T05:42:34.232Z,17.00
2018-08-20T05:45:01.795Z,15.63
2018-08-20T05:47:29.341Z,17.60
2018-08-20T05:49:56.989Z,17.03
2018-08-20T05:52:24.834Z,17.73
2018-08-20T05:54:52.503Z,18.17
2018-08-20T05:57:20.316Z,17.53
2018-08-20T05:59:48.023Z,17.90
2018-08-20T06:02:15.563Z,19.07
2018-08-20T06:04:43.285Z,18.80
2018-08-20T06:07:10.822Z,18.27
2018-08-20T06:09:38.444Z,19.23
2018-08-20T06:12:06.044Z,18.27
2018-08-20T06:14:33.587Z,16.83
2018-08-20T06:17:01.140Z,19.08
2018-08-20T06:19:28.701Z,18.53
2018-08-20T06:21:56.246Z,18.77
2018-08-20T06:24:23.841Z,19.07
2018-08-20T06:26:51.513Z,17.98
2018-08-20T06:29:19.063Z,19.93
2018-08-20T06:31:46.632Z,21.93
2018-08-20T06:34:14.186Z,21.27
2018-08-20T06:36:41.736Z,22.43
2018-08-20T06:39:09.410Z,22.23
2018-08-20T06:41:36.936Z,23.00
2018-08-20T06:44:04.505Z,23.33
2018-08-20T06:46:32.233Z,21.53
2018-08-20T06:48:59.830Z,22.30
2018-08-20T06:51:27.491Z,23.23
2018-08-20T06:53:55.184Z,23.17
2018-08-20T06:56:22.707Z,23.03
2018-08-20T06:58:50.454Z,22.47
2018-08-20T07:01:18.106Z,21.30
2018-08-20T07:03:45.704Z,23.87
2018-08-20T07:06:13.226Z,23.02
2018-08-20T07:08:40.781Z,22.10
2018-08-20T07:11:08.365Z,21.10
2018-08-20T07:13:35.881Z,22.57
2018-08-20T07:16:03.445Z,20.17
2018-08-20T07:18:31.031Z,20.20
2018-08-20T07:20:58.596Z,21.17
2018-08-20T07:23:26.226Z,20.43
2018-08-20T07:25:53.741Z,19.87
2018-08-20T07:28:21.254Z,20.33
2018-08-20T07:30:49.235Z,19.23
2018-08-20T07:33:16.766Z,17.73
2018-08-20T07:35:44.510Z,18.40
2018-08-20T07:38:12.090Z,16.67
2018-08-20T07:40:39.637Z,16.37
2018-08-20T07:46:10.262Z,16.90
2018-08-20T07:51:30.649Z,17.20
2018-08-20T07:53:58.371Z,15.93
2018-08-20T07:56:25.953Z,14.63
2018-08-20T07:58:53.492Z,14.90
2018-08-20T08:01:21.056Z,15.10
2018-08-20T08:03:48.572Z,14.13
2018-08-20T08:06:16.143Z,13.97
2018-08-20T08:08:43.706Z,11.87
2018-08-20T08:11:11.260Z,12.43
2018-08-20T08:13:38.847Z,12.77
2018-08-20T08:16:06.513Z,12.10
2018-08-20T08:18:34.207Z,12.97
2018-08-20T08:21:01.755Z,12.40
2018-08-20T08:23:29.276Z,11.43
2018-08-20T08:25:56.861Z,12.47
2018-08-20T08:28:24.398Z,11.70
2018-08-20T08:30:52.006Z,12.53
2018-08-20T08:33:19.593Z,12.60
2018-08-20T08:35:47.144Z,13.07
2018-08-20T08:38:14.709Z,12.70
2018-08-20T08:40:42.237Z,12.50
2018-08-20T08:43:09.814Z,14.13
2018-08-20T08:45:37.503Z,14.07
2018-08-20T08:48:05.115Z,14.50
2018-08-20T08:50:32.664Z,15.07
2018-08-20T08:53:00.211Z,15.50
2018-08-20T08:55:27.790Z,17.60
2018-08-20T08:57:55.380Z,17.67
2018-08-20T09:00:23.023Z,15.97
2018-08-20T09:02:50.524Z,15.80
2018-08-20T09:05:18.091Z,20.40
2018-08-20T09:07:45.641Z,20.50
2018-08-20T09:10:13.213Z,19.30
2018-08-20T09:12:40.807Z,19.93
2018-08-20T09:15:08.542Z,21.27
2018-08-20T09:17:36.113Z,19.17
2018-08-20T09:20:03.691Z,20.80
2018-08-20T09:22:31.236Z,23.00
2018-08-20T09:24:58.796Z,21.87
2018-08-20T09:27:26.389Z,22.10
2018-08-20T09:29:53.959Z,21.57
2018-08-20T09:32:21.526Z,23.07
2018-08-20T09:34:49.114Z,23.13
2018-08-20T09:37:16.628Z,24.13
2018-08-20T09:39:44.146Z,26.83
2018-08-20T09:42:11.825Z,24.20
2018-08-20T09:44:39.356Z,25.10
2018-08-20T09:47:06.917Z,25.70
2018-08-20T09:49:34.508Z,25.07
2018-08-20T09:52:02.057Z,24.40
2018-08-20T09:54:29.654Z,29.53
2018-08-20T09:56:57.184Z,26.77
2018-08-20T09:59:24.740Z,26.80
2018-08-20T10:01:52.317Z,27.60
2018-08-20T10:04:19.863Z,29.87
2018-08-20T10:06:47.446Z,29.53
2018-08-20T10:09:15.043Z,25.80
2018-08-20T10:11:42.699Z,26.57
2018-08-20T10:14:10.248Z,26.70
2018-08-20T10:16:37.809Z,26.33
2018-08-20T10:19:05.341Z,27.73
2018-08-20T10:21:33.017Z,26.80
2018-08-20T10:24:00.530Z,28.97
2018-08-20T10:26:28.124Z,29.87
2018-08-20T10:28:55.676Z,32.67
2018-08-20T10:31:23.205Z,29.30
2018-08-20T10:33:50.794Z,33.07
2018-08-20T10:36:18.342Z,35.67
2018-08-20T10:38:45.869Z,34.80
2018-08-20T10:41:13.416Z,34.93
2018-08-20T10:43:40.985Z,38.20
2018-08-20T10:46:08.550Z,35.60
2018-08-20T10:48:36.108Z,37.90
2018-08-20T10:51:03.767Z,39.93
2018-08-20T10:53:31.323Z,38.17
2018-08-20T10:55:58.885Z,38.47
2018-08-20T10:58:26.442Z,41.60
2018-08-20T11:00:54.009Z,40.20
2018-08-20T11:03:21.575Z,42.57
2018-08-20T11:05:49.175Z,41.63
2018-08-20T11:08:16.796Z,45.43
2018-08-20T11:10:44.376Z,38.60
2018-08-20T11:13:11.921Z,43.17
2018-08-20T11:15:39.476Z,38.77
2018-08-20T11:18:07.055Z,41.23
2018-08-20T11:20:34.619Z,40.43
2018-08-20T11:23:02.147Z,40.07
2018-08-20T11:25:29.736Z,40.00
2018-08-20T11:27:57.326Z,40.30
2018-08-20T11:30:24.908Z,42.40
2018-08-20T11:32:52.427Z,38.93
2018-08-20T11:35:19.998Z,38.63
2018-08-20T11:37:47.559Z,37.77
2018-08-20T11:40:15.088Z,37.80
2018-08-20T11:42:42.664Z,37.13
2018-08-20T11:45:10.242Z,37.47
2018-08-20T11:47:37.805Z,36.77
2018-08-20T11:50:05.479Z,36.70
2018-08-20T11:52:33.018Z,36.40
2018-08-20T11:55:00.535Z,36.43
2018-08-20T11:57:28.228Z,36.97
2018-08-20T11:59:55.745Z,36.60
2018-08-20T12:02:23.336Z,36.27
2018-08-20T12:04:50.851Z,36.87
2018-08-20T12:07:18.443Z,35.60
2018-08-20T12:09:45.995Z,35.90
2018-08-20T12:12:13.610Z,34.07
2018-08-20T12:14:41.145Z,36.33
2018-08-20T12:17:08.684Z,32.43
2018-08-20T12:19:36.261Z,31.87
2018-08-20T12:22:03.809Z,31.30
2018-08-20T12:24:31.354Z,30.80
2018-08-20T12:26:58.901Z,28.87
2018-08-20T12:29:26.495Z,29.57
2018-08-20T12:31:54.049Z,28.30
2018-08-20T12:34:21.619Z,28.97
2018-08-20T12:36:49.159Z,26.27
2018-08-20T12:39:16.706Z,24.87
2018-08-20T12:41:44.300Z,26.70
2018-08-20T12:44:11.822Z,24.50
2018-08-20T12:46:39.372Z,25.77
2018-08-20T12:49:06.963Z,24.63
2018-08-20T12:51:34.560Z,24.10
2018-08-20T12:54:02.143Z,22.23
2018-08-20T12:56:29.721Z,25.27
2018-08-20T12:58:57.261Z,25.37
2018-08-20T13:01:24.854Z,23.30
2018-08-20T13:03:52.422Z,24.17
2018-08-20T13:06:20.036Z,22.17
2018-08-20T13:08:47.582Z,24.53
2018-08-20T13:11:15.164Z,24.47
2018-08-20T13:13:42.713Z,24.63
2018-08-20T13:16:10.397Z,25.70
2018-08-20T13:18:37.859Z,24.87
2018-08-20T13:21:05.436Z,26.20
2018-08-20T13:23:33.020Z,20.73
2018-08-20T13:26:00.542Z,19.43
2018-08-20T13:28:28.109Z,18.93
2018-08-20T13:30:55.641Z,18.80
2018-08-20T13:33:23.225Z,18.53
2018-08-20T13:35:50.758Z,17.30
2018-08-20T13:38:18.334Z,19.73
2018-08-20T13:40:45.931Z,19.80
2018-08-20T13:43:13.469Z,20.37
2018-08-20T13:45:41.028Z,18.40
2018-08-20T13:48:08.886Z,20.30
2018-08-20T13:50:36.449Z,18.00
2018-08-20T13:53:04.024Z,15.07
2018-08-20T13:55:31.571Z,13.97
2018-08-20T13:57:59.137Z,13.87
2018-08-20T14:00:26.659Z,13.90
2018-08-20T14:02:54.225Z,13.20
2018-08-20T14:05:21.859Z,13.30
2018-08-20T14:07:49.415Z,13.30
2018-08-20T14:10:17.004Z,12.33
2018-08-20T14:12:44.524Z,11.57
2018-08-20T14:15:12.065Z,10.87
2018-08-20T14:17:39.625Z,11.17
2018-08-20T14:20:07.221Z,10.03
2018-08-20T14:22:34.747Z,9.57
2018-08-20T14:25:02.597Z,8.57
2018-08-20T14:27:30.300Z,9.63
2018-08-20T14:29:57.828Z,9.03
2018-08-20T14:32:25.402Z,9.10
2018-08-20T14:34:52.926Z,8.90
2018-08-20T14:37:20.478Z,8.37
2018-08-20T14:39:48.069Z,8.27
2018-08-20T14:42:15.665Z,8.97
2018-08-20T14:44:43.367Z,7.90
2018-08-20T14:47:10.927Z,8.63
2018-08-20T14:49:38.472Z,8.60
2018-08-20T14:52:06.083Z,9.03
2018-08-20T14:54:33.616Z,8.30
2018-08-20T14:57:01.148Z,8.37
2018-08-20T14:59:28.699Z,8.60
2018-08-20T15:01:56.293Z,8.60
2018-08-20T15:04:23.844Z,8.10
2018-08-20T15:06:51.374Z,8.00
2018-08-20T15:09:19.010Z,8.47
2018-08-20T15:11:46.584Z,8.47
2018-08-20T15:14:14.118Z,8.23
2018-08-20T15:16:41.640Z,8.63
2018-08-20T15:19:09.236Z,8.87
2018-08-20T15:21:36.765Z,8.77
2018-08-20T15:24:04.293Z,9.00
2018-08-20T15:26:32.002Z,8.37
2018-08-20T15:28:59.479Z,8.27
2018-08-20T15:31:27.062Z,9.30
2018-08-20T15:33:54.783Z,8.87
2018-08-20T15:36:22.309Z,8.00
2018-08-20T15:38:49.984Z,9.20
2018-08-20T15:41:17.730Z,9.27
2018-08-20T15:43:45.304Z,9.73
2018-08-20T15:46:12.908Z,10.57
2018-08-20T15:48:40.460Z,10.83
2018-08-20T15:51:08.055Z,9.50
2018-08-20T15:53:35.589Z,10.63
2018-08-20T15:56:03.199Z,9.50
2018-08-20T15:58:31.074Z,11.07
2018-08-20T16:00:59.464Z,12.37
2018-08-20T16:03:27.053Z,10.27
2018-08-20T16:05:54.842Z,13.37
2018-08-20T16:08:22.544Z,14.13
2018-08-20T16:11:01.360Z,14.10
2018-08-20T17:32:17.061Z,8.97
2018-08-20T17:34:44.659Z,8.57
2018-08-20T17:37:12.265Z,8.50
2018-08-20T17:39:39.808Z,7.97
2018-08-20T17:42:07.401Z,6.80
2018-08-20T17:44:34.966Z,6.27
2018-08-20T17:47:02.508Z,6.23
2018-08-20T17:49:30.059Z,5.17
2018-08-20T17:51:57.683Z,5.50
2018-08-20T17:54:25.216Z,5.00
2018-08-20T17:56:52.899Z,4.67
2018-08-20T17:59:20.472Z,4.53
2018-08-20T18:01:48.063Z,3.57
2018-08-20T18:04:15.621Z,3.27
2018-08-20T18:06:43.305Z,3.20
2018-08-20T18:09:10.878Z,3.23
2018-08-20T18:11:38.404Z,2.90
2018-08-20T18:14:05.969Z,3.17
2018-08-20T18:16:33.497Z,3.20
2018-08-20T18:19:01.069Z,2.90
2018-08-20T18:21:28.953Z,2.40
2018-08-20T18:23:57.026Z,2.23
2018-08-20T18:26:24.560Z,2.50
2018-08-20T18:28:52.125Z,2.20
2018-08-20T18:31:19.667Z,2.37
2018-08-20T18:33:47.243Z,2.67
2018-08-20T18:36:14.808Z,2.50
2018-08-20T18:38:42.395Z,2.63
2018-08-20T18:41:09.967Z,2.50
2018-08-20T18:43:37.557Z,2.30
2018-08-20T18:46:05.128Z,2.53
2018-08-20T18:48:32.693Z,2.37
2018-08-20T18:51:00.203Z,2.10
2018-08-20T18:53:27.743Z,2.50
2018-08-20T18:55:55.307Z,2.97
2018-08-20T18:58:23.003Z,3.25
2018-08-20T19:00:50.590Z,2.70
2018-08-20T19:03:18.113Z,2.80
2018-08-20T19:05:45.662Z,3.20
2018-08-20T19:08:13.222Z,2.97
2018-08-20T19:10:40.799Z,2.80
2018-08-20T19:13:08.377Z,2.70
2018-08-20T19:15:35.966Z,2.50
2018-08-20T19:18:03.505Z,2.60
2018-08-20T19:20:31.098Z,2.30
2018-08-20T19:22:58.885Z,2.50
2018-08-20T19:25:26.409Z,2.97
2018-08-20T19:27:53.988Z,3.20
2018-08-20T19:30:23.281Z,2.40
2018-08-20T19:32:51.029Z,2.97
2018-08-20T19:35:19.348Z,3.17
2018-08-20T19:37:47.796Z,3.00
2018-08-20T19:40:15.350Z,2.90
2018-08-20T19:42:42.961Z,3.13
2018-08-20T19:45:11.184Z,2.70
2018-08-20T19:47:38.767Z,2.83
2018-08-20T19:50:06.467Z,3.00
2018-08-20T19:52:34.234Z,2.80
2018-08-20T19:55:01.985Z,2.60
2018-08-20T19:57:29.728Z,3.07
2018-08-20T19:59:58.534Z,2.83
2018-08-20T20:02:26.207Z,2.73
2018-08-20T20:04:55.744Z,3.00
2018-08-20T20:07:23.314Z,3.00
2018-08-20T20:09:51.113Z,2.73
2018-08-20T20:12:18.836Z,3.03
2018-08-20T20:14:46.373Z,3.10
2018-08-20T20:17:18.230Z,3.30
2018-08-20T20:19:46.827Z,3.20
2018-08-20T20:22:14.483Z,2.90
2018-08-20T20:24:42.073Z,3.17
2018-08-20T20:27:09.623Z,3.40
2018-08-20T20:29:37.157Z,3.10
2018-08-20T20:32:04.744Z,3.10
2018-08-20T20:34:32.348Z,2.80
2018-08-20T20:37:00.147Z,3.40
2018-08-20T20:39:27.748Z,3.10
2018-08-20T20:41:55.345Z,3.10
2018-08-20T20:44:22.879Z,2.90
2018-08-20T20:46:50.462Z,3.00
2018-08-20T20:49:19.861Z,3.23
2018-08-20T20:51:47.380Z,3.00
2018-08-20T20:54:14.970Z,3.30
2018-08-20T20:56:42.536Z,2.80
2018-08-20T20:59:11.308Z,2.90
2018-08-20T21:01:39.080Z,2.77
2018-08-20T21:04:06.790Z,3.27
2018-08-20T21:06:34.592Z,3.10
2018-08-20T21:09:02.194Z,2.70
2018-08-20T21:11:30.321Z,2.80
2018-08-20T21:13:58.659Z,2.60
2018-08-20T21:16:27.479Z,2.62
2018-08-20T21:19:01.106Z,2.85
